Time;durP1;ratioP1;P1;durP2;ratioP2;P2;SDS_P1;SDS_P2;PMS_P1;PMS_P2;Temp;Humidity;BMP_temperature;BMP_pressure;BME280_temperature;BME280_humidity;BME280_pressure;Samples;Min_cycle;Max_cycle;Signal;HPM_P1;HPM_P2
2022/04/22 00:00:17;;;;;;;10.07;4.55;;;;;;;12.43;60.60;100835.41;4901754;29;20048;-43
2022/04/22 00:02:44;;;;;;;8.07;4.45;;;;;;;12.46;60.72;100826.66;4901150;29;20037;-48
2022/04/22 00:05:12;;;;;;;8.57;5.20;;;;;;;12.48;60.60;100837.28;4895361;29;20052;-44
2022/04/22 00:07:39;;;;;;;11.50;5.05;;;;;;;12.44;61.26;100828.84;4894220;29;20060;-49
2022/04/22 00:10:10;;;;;;;11.15;4.82;;;;;;;12.25;61.36;100823.19;4899812;29;20048;-43
2022/04/22 00:12:38;;;;;;;10.57;5.18;;;;;;;12.23;61.83;100830.84;4899778;29;20048;-48
2022/04/22 00:15:13;;;;;;;10.77;5.43;;;;;;;12.21;62.39;100824.03;4890627;29;20132;-49
2022/04/22 00:17:43;;;;;;;8.82;4.70;;;;;;;12.14;62.40;100821.59;4900809;29;20487;-48
2022/04/22 00:20:11;;;;;;;12.02;5.68;;;;;;;12.20;62.60;100812.28;4900177;29;20044;-44
2022/04/22 00:22:42;;;;;;;11.00;5.47;;;;;;;12.08;63.09;100818.06;4896636;29;20424;-49
2022/04/22 00:25:12;;;;;;;8.07;4.95;;;;;;;12.06;63.26;100808.53;4888859;29;20482;-47
2022/04/22 00:27:40;;;;;;;8.85;5.07;;;;;;;12.02;63.85;100802.78;4900328;29;20061;-49
2022/04/22 00:30:10;;;;;;;11.35;5.40;;;;;;;12.04;63.41;100802.50;4899747;29;20051;-49
2022/04/22 00:32:38;;;;;;;8.38;4.93;;;;;;;12.01;63.87;100797.63;4898998;29;20037;-49
2022/04/22 00:35:06;;;;;;;11.27;5.82;;;;;;;11.98;63.84;100796.25;4894681;29;20052;-49
2022/04/22 00:37:34;;;;;;;9.57;5.35;;;;;;;11.98;64.73;100809.91;4900033;29;20052;-52
2022/04/22 00:40:02;;;;;;;11.10;6.10;;;;;;;11.97;64.41;100807.44;4900351;29;20052;-47
2022/04/22 00:42:29;;;;;;;8.68;5.38;;;;;;;12.00;64.54;100798.69;4899241;29;20053;-51
2022/04/22 00:44:57;;;;;;;8.57;5.18;;;;;;;12.07;64.35;100805.50;4895767;29;20127;-47
2022/04/22 00:47:26;;;;;;;10.85;5.72;;;;;;;12.05;64.87;100798.66;4898805;29;20067;-49
2022/04/22 00:49:54;;;;;;;9.35;5.60;;;;;;;12.09;64.42;100805.22;4889952;29;20422;-48
2022/04/22 00:52:21;;;;;;;10.60;6.35;;;;;;;12.11;64.75;100803.03;4890154;29;20036;-50
2022/04/22 00:54:49;;;;;;;13.02;5.85;;;;;;;11.99;64.63;100799.81;4893300;29;20192;-52
2022/04/22 00:57:18;;;;;;;9.50;5.45;;;;;;;11.96;64.96;100800.38;4898635;29;20095;-48
2022/04/22 00:59:46;;;;;;;11.60;6.00;;;;;;;11.98;64.60;100798.16;4898699;29;20044;-50
2022/04/22 01:02:14;;;;;;;9.93;5.50;;;;;;;11.98;65.08;100789.97;4898573;29;20492;-48
2022/04/22 01:10:15;;;;;;;9.73;5.70;;;;;;;11.85;65.55;100785.88;4899217;29;20410;-54
2022/04/22 01:12:43;;;;;;;9.68;5.53;;;;;;;11.83;65.99;100791.59;4899593;29;20041;-48
2022/04/22 01:15:10;;;;;;;12.27;5.78;;;;;;;11.84;65.97;100790.53;4896018;29;20052;-47
2022/04/22 01:17:39;;;;;;;10.70;5.95;;;;;;;11.72;66.27;100787.28;4881007;29;20045;-48
2022/04/22 01:20:07;;;;;;;11.00;6.28;;;;;;;11.59;67.94;100785.13;4893427;29;20045;-48
2022/04/22 01:22:34;;;;;;;9.55;5.88;;;;;;;11.64;67.74;100783.22;4899317;29;20495;-48
2022/04/22 01:25:03;;;;;;;12.77;6.60;;;;;;;11.74;67.29;100782.38;4899462;29;20068;-45
2022/04/22 01:27:31;;;;;;;11.30;6.20;;;;;;;11.75;67.49;100772.25;4887009;29;20567;-45
2022/04/22 01:30:02;;;;;;;10.50;6.38;;;;;;;11.75;67.50;100770.34;4898108;29;20040;-44
2022/04/22 01:32:30;;;;;;;11.35;6.15;;;;;;;11.76;67.29;100771.16;4899906;29;20053;-46
2022/04/22 01:34:59;;;;;;;11.90;6.63;;;;;;;11.69;68.02;100763.28;4896344;29;20049;-44
2022/04/22 01:37:26;;;;;;;13.05;6.15;;;;;;;11.70;67.71;100759.44;4898238;29;20053;-44
2022/04/22 01:39:54;;;;;;;11.10;6.13;;;;;;;11.79;67.31;100762.44;4898344;29;20045;-45
2022/04/22 01:42:22;;;;;;;12.57;6.50;;;;;;;11.76;67.48;100761.09;4898870;29;20457;-44
2022/04/22 01:44:49;;;;;;;10.75;6.45;;;;;;;11.76;67.36;100761.09;4883170;29;20045;-43
2022/04/22 01:47:17;;;;;;;10.45;6.43;;;;;;;11.76;67.25;100760.25;4897388;29;20079;-43
2022/04/22 01:49:45;;;;;;;12.13;6.72;;;;;;;11.65;68.12;100762.19;4897788;29;20051;-44
2022/04/22 01:52:13;;;;;;;10.80;6.00;;;;;;;11.50;68.85;100760.31;4913513;29;20104;-44
2022/04/22 01:54:40;;;;;;;11.57;6.47;;;;;;;11.40;69.30;100761.16;4892512;29;20037;-45
2022/04/22 01:57:08;;;;;;;12.05;6.85;;;;;;;11.36;69.59;100762.78;4898943;29;20424;-43
2022/04/22 01:59:37;;;;;;;11.07;6.90;;;;;;;11.37;69.41;100763.59;4898576;29;20040;-46
2022/04/22 02:02:05;;;;;;;11.95;6.30;;;;;;;11.42;69.53;100760.84;4898647;29;20488;-45
2022/04/22 02:04:32;;;;;;;11.88;6.32;;;;;;;11.41;69.80;100765.50;4894541;29;20071;-45
2022/04/22 02:07:00;;;;;;;12.30;6.60;;;;;;;11.42;70.01;100769.03;4897397;29;20045;-46
2022/04/22 02:09:28;;;;;;;10.65;6.03;;;;;;;11.40;70.23;100758.44;4898791;29;20044;-48
2022/04/22 02:11:58;;;;;;;10.02;5.95;;;;;;;11.53;69.54;100765.22;4884866;29;20062;-45
2022/04/22 02:14:26;;;;;;;8.68;6.10;;;;;;;11.50;69.96;100766.59;4880101;29;20512;-49
2022/04/22 02:16:54;;;;;;;10.57;6.82;;;;;;;11.50;69.45;100772.03;4889583;29;20049;-48
2022/04/22 02:19:22;;;;;;;11.10;6.60;;;;;;;11.42;69.97;100758.94;4898027;29;20051;-50
2022/04/22 02:21:49;;;;;;;10.93;6.80;;;;;;;11.38;70.62;100766.06;4888887;29;20049;-49
2022/04/22 02:24:17;;;;;;;11.48;7.45;;;;;;;11.34;70.12;100759.50;4887156;29;20067;-50
2022/04/22 02:29:30;;;;;;;;;;;;;;;11.32;70.31;100763.59;4899234;29;20053;-48
2022/04/22 02:31:58;;;;;;;10.85;6.30;;;;;;;11.33;70.54;100759.78;4880622;29;19931;-49
2022/04/22 02:34:26;;;;;;;10.63;6.88;;;;;;;11.37;70.53;100755.41;4885496;29;20052;-49
2022/04/22 02:36:53;;;;;;;10.02;6.88;;;;;;;11.34;70.92;100759.50;4898324;29;20507;-45
2022/04/22 02:39:21;;;;;;;10.73;7.32;;;;;;;11.38;70.48;100759.78;4898406;29;20052;-44
2022/04/22 02:47:21;;;;;;;13.25;7.25;;;;;;;11.27;71.60;100746.16;4897845;29;20067;-45
2022/04/22 02:49:49;;;;;;;9.75;6.70;;;;;;;11.25;71.76;100742.06;4895276;29;20065;-43
2022/04/22 02:52:16;;;;;;;12.38;7.13;;;;;;;11.16;71.74;100743.69;4879501;29;20517;-44
2022/04/22 02:54:44;;;;;;;11.63;7.15;;;;;;;11.11;72.55;100740.97;4902950;29;20049;-45
2022/04/22 02:57:12;;;;;;;10.27;7.40;;;;;;;11.07;72.47;100747.00;4898635;29;20040;-44
2022/04/22 02:59:41;;;;;;;11.77;8.05;;;;;;;10.99;72.85;100733.91;4897525;29;20500;-43
2022/04/22 03:02:09;;;;;;;10.93;6.82;;;;;;;11.02;72.88;100729.81;4880458;29;20052;-43
2022/04/22 03:04:36;;;;;;;12.70;7.97;;;;;;;11.09;73.00;100735.81;4891928;29;20456;-44
2022/04/22 03:07:05;;;;;;;10.82;7.22;;;;;;;11.14;72.40;100729.53;4897713;29;20171;-46
2022/04/22 03:09:32;;;;;;;10.27;7.30;;;;;;;11.17;72.15;100731.72;4896927;29;20045;-43
2022/04/22 03:12:00;;;;;;;15.38;8.55;;;;;;;11.02;72.87;100727.91;4896789;29;20041;-44
2022/04/22 03:14:29;;;;;;;11.98;7.00;;;;;;;10.87;74.31;100736.91;4897980;29;20049;-45
2022/04/22 03:16:56;;;;;;;12.70;8.32;;;;;;;10.87;74.10;100727.88;4898257;29;20048;-43
2022/04/22 03:19:24;;;;;;;10.70;7.45;;;;;;;10.87;74.33;100730.63;4901637;29;20048;-44
2022/04/22 03:21:52;;;;;;;12.02;8.30;;;;;;;10.82;74.07;100734.19;4896051;29;20044;-43
2022/04/22 03:24:19;;;;;;;12.23;8.10;;;;;;;10.83;74.72;100735.00;4900803;29;20048;-43
2022/04/22 03:26:47;;;;;;;12.63;8.02;;;;;;;10.94;73.81;100742.06;4901417;29;20396;-43
2022/04/22 03:29:15;;;;;;;12.52;8.70;;;;;;;10.93;73.73;100735.00;4901194;29;20500;-44
2022/04/22 03:31:42;;;;;;;13.27;8.70;;;;;;;10.88;74.14;100737.72;4898417;29;20049;-47
2022/04/22 03:34:10;;;;;;;12.63;8.30;;;;;;;10.69;75.16;100729.25;4897514;29;20060;-51
2022/04/22 03:36:38;;;;;;;13.32;8.48;;;;;;;10.54;75.68;100735.50;4901516;29;20044;-44
2022/04/22 03:39:05;;;;;;;13.35;9.27;;;;;;;10.55;76.26;100728.94;4901445;29;20056;-44
2022/04/22 03:41:33;;;;;;;14.82;8.20;;;;;;;10.57;76.28;100726.78;4899460;29;20052;-44
2022/04/22 03:44:01;;;;;;;14.80;8.52;;;;;;;10.53;76.42;100722.97;4901423;29;20044;-45
2022/04/22 03:46:30;;;;;;;12.88;8.52;;;;;;;10.50;76.49;100720.78;4900809;29;20100;-48
2022/04/22 03:49:00;;;;;;;12.77;8.90;;;;;;;10.48;76.65;100712.06;4899131;29;20053;-47
2022/04/22 03:51:28;;;;;;;12.40;8.20;;;;;;;10.34;77.71;100711.78;4894928;29;20132;-48
2022/04/22 03:53:56;;;;;;;12.27;8.52;;;;;;;10.37;77.60;100710.41;4890105;29;20047;-48
2022/04/22 03:59:10;;;;;;;11.30;8.23;;;;;;;10.54;76.92;100710.19;4900317;29;20153;-49
2022/04/22 04:01:38;;;;;;;10.63;7.28;;;;;;;10.40;77.27;100705.25;4897146;29;20052;-48
2022/04/22 04:04:05;;;;;;;11.55;8.00;;;;;;;10.39;77.66;100714.50;4882035;29;20045;-48
2022/04/22 04:06:33;;;;;;;13.73;8.38;;;;;;;10.44;77.52;100705.53;4882166;29;20044;-47
2022/04/22 04:17:19;;;;;;;;;;;;;;;10.66;76.53;100708.00;4882487;29;20053;-49
2022/04/22 04:25:19;;;;;;;11.45;7.30;;;;;;;10.51;78.15;100711.53;4900369;29;20048;-48
2022/04/22 04:27:47;;;;;;;10.50;7.22;;;;;;;10.54;78.12;100708.25;4900133;29;20135;-48
2022/04/22 04:30:14;;;;;;;11.68;7.82;;;;;;;10.52;78.09;100702.25;4900384;29;20507;-48
2022/04/22 04:32:42;;;;;;;10.73;7.60;;;;;;;10.42;79.28;100702.25;4879630;29;20501;-48
2022/04/22 04:35:09;;;;;;;11.93;7.80;;;;;;;10.44;79.63;100705.53;4894713;29;20060;-46
2022/04/22 04:37:41;;;;;;;14.50;8.27;;;;;;;10.54;79.52;100707.44;4892517;29;20055;-48
2022/04/22 04:40:10;;;;;;;14.68;8.20;;;;;;;10.58;79.69;100708.53;4899356;29;20052;-49
2022/04/22 04:42:38;;;;;;;12.90;8.25;;;;;;;10.57;79.58;100705.00;4900268;29;20037;-51
2022/04/22 04:45:06;;;;;;;15.13;8.93;;;;;;;10.56;80.37;100706.09;4898103;29;20056;-48
2022/04/22 04:47:41;;;;;;;16.73;9.25;;;;;;;10.51;80.87;100700.63;4930615;29;20095;-46
2022/04/22 04:50:10;;;;;;;16.30;8.45;;;;;;;10.32;82.04;100696.75;4898073;29;20404;-49
2022/04/22 04:52:38;;;;;;;13.90;8.55;;;;;;;10.28;83.40;100703.81;4898475;29;20041;-50
2022/04/22 04:55:07;;;;;;;12.13;8.63;;;;;;;10.42;83.10;100700.34;4889385;29;20052;-49
2022/04/22 04:57:35;;;;;;;15.32;9.85;;;;;;;10.52;82.38;100705.00;4881312;29;20056;-45
2022/04/22 05:00:07;;;;;;;15.70;9.60;;;;;;;10.49;83.15;100708.25;4881232;29;20041;-48
2022/04/22 05:02:35;;;;;;;13.15;8.98;;;;;;;10.48;83.41;100705.78;4888957;29;20069;-47
2022/04/22 05:05:06;;;;;;;13.65;9.15;;;;;;;10.40;83.72;100709.88;4895355;29;20052;-47
2022/04/22 05:07:45;;;;;;;14.88;9.98;;;;;;;10.36;84.91;100714.22;4898752;29;20056;-49
2022/04/22 05:10:12;;;;;;;13.60;7.25;;;;;;;10.44;84.65;100709.06;4900053;29;20049;-49
2022/04/22 05:12:41;;;;;;;14.35;9.80;;;;;;;10.52;84.22;100712.34;4899810;29;20056;-47
2022/04/22 05:15:10;;;;;;;15.02;10.30;;;;;;;10.53;84.17;100714.78;4895406;29;20048;-48
2022/04/22 05:17:40;;;;;;;13.80;9.07;;;;;;;10.49;85.08;100713.72;4899058;29;20064;-50
2022/04/22 05:20:13;;;;;;;20.10;11.07;;;;;;;10.51;84.75;100705.25;4557293;29;10001517;-50
2022/04/22 05:22:41;;;;;;;15.70;9.70;;;;;;;10.45;85.46;100707.16;4894878;29;20060;-50
2022/04/22 05:25:10;;;;;;;19.08;9.88;;;;;;;10.40;86.22;100704.44;4877740;29;20056;-48
2022/04/22 05:27:38;;;;;;;15.32;9.52;;;;;;;10.52;85.85;100712.34;4883282;29;20796;-47
2022/04/22 05:32:54;;;;;;;17.20;11.85;;;;;;;10.74;84.64;100709.38;4895588;29;20053;-49
2022/04/22 05:35:23;;;;;;;21.40;12.48;;;;;;;10.65;85.00;100712.66;4877678;29;20088;-50
2022/04/22 05:37:53;;;;;;;16.75;9.93;;;;;;;10.53;86.43;100709.34;4878719;29;20045;-56
2022/04/22 05:40:22;;;;;;;16.27;10.52;;;;;;;10.53;86.44;100703.06;4893133;29;20063;-53
2022/04/22 05:42:51;;;;;;;16.23;10.77;;;;;;;10.49;87.35;100702.81;4886282;29;20060;-53
2022/04/22 05:45:19;;;;;;;12.68;9.32;;;;;;;10.43;87.57;100710.13;4895728;29;20048;-49
2022/04/22 05:47:48;;;;;;;14.13;9.18;;;;;;;10.44;88.03;100710.97;4878975;29;20413;-51
2022/04/22 05:50:17;;;;;;;17.30;9.70;;;;;;;10.49;87.36;100708.25;4895336;29;20040;-50
2022/04/22 05:52:45;;;;;;;15.18;9.57;;;;;;;10.53;88.08;100703.88;4893951;29;20427;-51
2022/04/22 05:55:16;;;;;;;16.00;11.20;;;;;;;10.50;88.14;100704.44;4878641;29;20052;-48
2022/04/22 05:57:46;;;;;;;14.35;10.30;;;;;;;10.53;88.27;100711.25;4880552;29;20041;-47
2022/04/22 06:00:16;;;;;;;18.75;10.30;;;;;;;10.52;88.24;100715.88;4909594;29;20049;-49
2022/04/22 06:02:45;;;;;;;13.07;8.85;;;;;;;10.56;88.31;100721.59;4894116;29;20054;-48
2022/04/22 06:05:14;;;;;;;16.75;10.82;;;;;;;10.68;87.43;100721.34;4898391;29;20457;-50
2022/04/22 06:07:42;;;;;;;15.95;10.95;;;;;;;10.64;87.54;100721.88;4928309;29;20476;-48
2022/04/22 06:12:59;;;;;;;16.02;10.10;;;;;;;10.66;88.14;100718.91;4922066;29;20049;-50
2022/04/22 06:15:27;;;;;;;17.67;10.88;;;;;;;10.74;87.80;100709.38;4924986;29;20048;-46
2022/04/22 06:17:54;;;;;;;15.05;9.73;;;;;;;10.80;87.45;100705.53;4897413;29;20072;-52
2022/04/22 06:20:22;;;;;;;16.92;12.40;;;;;;;10.83;87.14;100714.00;4896920;29;20745;-48
2022/04/22 06:22:50;;;;;;;16.80;11.35;;;;;;;10.73;87.90;100708.56;4883363;29;20048;-49
2022/04/22 06:25:18;;;;;;;18.13;12.07;;;;;;;10.73;88.22;100713.19;4909590;29;20055;-47
2022/04/22 06:27:46;;;;;;;16.58;11.98;;;;;;;10.66;88.57;100714.28;4893277;29;20055;-48
2022/04/22 06:30:16;;;;;;;15.23;11.68;;;;;;;10.75;88.13;100700.09;4881819;29;20131;-52
2022/04/22 06:32:46;;;;;;;18.35;10.43;;;;;;;10.84;87.59;100709.38;4892963;29;20409;-50
2022/04/22 06:35:15;;;;;;;18.05;11.88;;;;;;;10.90;87.71;100708.28;4896979;29;20131;-51
2022/04/22 06:37:45;;;;;;;17.17;11.27;;;;;;;10.92;87.59;100706.09;4898028;29;20047;-49
2022/04/22 06:45:48;;;;;;;15.38;11.35;;;;;;;10.81;88.20;100702.56;4888130;29;20395;-50
2022/04/22 06:48:31;;;;;;;17.98;13.45;;;;;;;10.86;87.88;100713.44;4896171;29;20052;-51
2022/04/22 06:51:17;;;;;;;20.25;12.48;;;;;;;10.96;87.97;100706.38;4896477;29;20416;-46
2022/04/22 06:53:46;;;;;;;17.05;12.85;;;;;;;10.97;87.68;100699.84;4886794;29;20055;-50
2022/04/22 06:56:14;;;;;;;17.20;12.60;;;;;;;11.02;87.18;100703.38;4879424;29;20057;-49
2022/04/22 06:58:42;;;;;;;15.55;12.35;;;;;;;11.05;86.87;100711.00;4897020;29;20503;-44
2022/04/22 07:01:10;;;;;;;15.70;11.73;;;;;;;10.99;86.80;100695.75;4896772;29;20052;-47
2022/04/22 07:03:58;;;;;;;15.63;11.75;;;;;;;11.01;86.49;100701.72;4888644;29;20045;-48
2022/04/22 07:06:26;;;;;;;22.83;11.10;;;;;;;11.18;86.22;100706.06;4886812;29;20051;-46
2022/04/22 07:08:54;;;;;;;14.73;10.55;;;;;;;11.22;85.12;100710.69;4893250;29;20112;-46
2022/04/22 07:11:24;;;;;;;15.18;10.70;;;;;;;11.31;85.65;100700.06;4895750;29;20040;-46
2022/04/22 07:13:57;;;;;;;18.77;12.98;;;;;;;11.33;85.02;100711.53;4894136;29;20053;-54
2022/04/22 07:16:25;;;;;;;16.50;12.05;;;;;;;11.28;84.97;100706.88;4884322;29;20412;-47
2022/04/22 07:18:53;;;;;;;16.45;12.85;;;;;;;11.25;85.70;100709.31;4893199;29;20059;-49
2022/04/22 07:21:22;;;;;;;15.65;12.52;;;;;;;11.20;85.36;100701.97;4921790;29;20069;-48
2022/04/22 07:23:50;;;;;;;16.38;12.82;;;;;;;11.17;84.93;100696.25;4879281;29;20128;-49
2022/04/22 07:26:20;;;;;;;17.27;12.77;;;;;;;11.16;85.51;100686.44;4886010;29;20044;-46
2022/04/22 07:28:49;;;;;;;17.20;10.52;;;;;;;11.17;85.41;100690.81;4891845;29;20486;-47
2022/04/22 07:31:21;;;;;;;15.40;12.13;;;;;;;11.22;85.47;100683.44;4897050;29;20041;-52
2022/04/22 07:33:49;;;;;;;15.85;11.25;;;;;;;11.22;85.14;100682.63;4895150;29;20072;-50
2022/04/22 07:36:17;;;;;;;15.70;11.80;;;;;;;11.27;85.18;100679.88;4886013;29;20056;-49
2022/04/22 07:38:45;;;;;;;18.08;11.75;;;;;;;11.25;85.01;100684.78;4890831;29;20132;-47
2022/04/22 07:41:17;;;;;;;14.30;11.07;;;;;;;11.30;84.73;100679.31;4877979;29;20037;-46
2022/04/22 07:46:47;;;;;;;16.85;10.32;;;;;;;11.51;83.74;100682.81;4894654;29;20120;-49
2022/04/22 07:49:16;;;;;;;15.80;10.65;;;;;;;11.51;82.98;100686.34;4892145;29;20408;-48
2022/04/22 07:51:45;;;;;;;15.40;11.43;;;;;;;11.46;83.82;100682.84;4892233;29;20048;-47
2022/04/22 07:54:13;;;;;;;14.68;10.50;;;;;;;11.39;83.30;100682.31;4883150;29;20056;-49
2022/04/22 07:56:41;;;;;;;16.83;11.68;;;;;;;11.25;84.17;100671.16;4896007;29;20485;-48
2022/04/22 07:59:10;;;;;;;15.50;10.73;;;;;;;11.30;84.49;100679.31;4886877;29;20045;-50
2022/04/22 08:01:38;;;;;;;14.82;11.70;;;;;;;11.33;84.88;100676.06;4895898;29;20092;-50
2022/04/22 08:04:06;;;;;;;15.75;10.90;;;;;;;11.40;84.33;100678.47;4883593;29;20045;-51
2022/04/22 08:06:34;;;;;;;14.32;11.43;;;;;;;11.38;84.00;100681.50;4920392;29;20059;-48
2022/04/22 08:09:02;;;;;;;16.77;11.48;;;;;;;11.44;83.97;100679.56;4894844;29;20070;-50
2022/04/22 08:11:30;;;;;;;15.77;10.77;;;;;;;11.51;83.32;100669.16;4889361;29;20049;-51
2022/04/22 08:13:59;;;;;;;18.35;11.18;;;;;;;11.60;82.94;100677.63;4893264;29;20437;-50
2022/04/22 08:16:27;;;;;;;14.02;10.75;;;;;;;11.72;82.15;100675.38;4896630;29;20070;-50
2022/04/22 08:18:54;;;;;;;17.60;9.52;;;;;;;11.79;83.62;100655.97;4891854;29;20041;-52
2022/04/22 08:21:32;;;;;;;15.35;11.73;;;;;;;11.87;81.39;100671.78;4881388;29;20132;-49
2022/04/22 08:24:00;;;;;;;17.27;10.57;;;;;;;11.86;81.77;100665.50;4922696;29;20089;-50
2022/04/22 08:26:31;;;;;;;16.60;11.32;;;;;;;11.87;81.64;100667.16;4889952;29;20045;-48
2022/04/22 08:28:59;;;;;;;18.98;11.98;;;;;;;11.92;82.79;100658.91;4914891;29;20079;-50
2022/04/22 08:31:26;;;;;;;15.77;10.48;;;;;;;11.99;81.10;100664.09;4898788;29;20071;-47
2022/04/22 08:33:56;;;;;;;16.73;12.27;;;;;;;12.00;81.66;100663.00;4920144;29;20124;-46
2022/04/22 08:36:29;;;;;;;16.55;12.23;;;;;;;12.01;80.68;100664.63;4896897;29;20491;-48
2022/04/22 08:38:57;;;;;;;15.70;11.90;;;;;;;12.01;81.63;100663.81;4887030;29;20441;-46
2022/04/22 08:41:26;;;;;;;17.65;10.93;;;;;;;11.95;80.51;100663.00;4890961;29;20059;-45
2022/04/22 08:43:59;;;;;;;16.83;12.57;;;;;;;11.89;80.10;100659.50;4899787;29;20487;-50
2022/04/22 08:52:01;;;;;;;16.92;11.90;;;;;;;12.20;79.62;100653.88;4913208;29;20045;-45
2022/04/22 08:54:30;;;;;;;15.93;12.02;;;;;;;12.25;78.48;100656.56;4890734;29;20460;-49
2022/04/22 08:56:57;;;;;;;15.65;10.57;;;;;;;12.31;76.58;100644.50;4898293;29;20059;-49
2022/04/22 08:59:25;;;;;;;15.35;9.45;;;;;;;12.38;76.36;100643.34;4929110;29;20063;-48
2022/04/22 09:01:55;;;;;;;13.90;10.57;;;;;;;12.47;77.36;100644.38;4899688;29;20488;-49
2022/04/22 09:04:23;;;;;;;17.17;12.27;;;;;;;12.55;76.84;100646.50;4891070;29;20045;-44
2022/04/22 09:06:52;;;;;;;15.57;11.02;;;;;;;12.57;75.77;100641.56;4913840;29;20382;-46
2022/04/22 09:09:19;;;;;;;16.00;10.60;;;;;;;12.54;76.43;100642.94;4922748;29;20567;-49
2022/04/22 09:11:47;;;;;;;14.38;11.13;;;;;;;12.56;75.75;100629.00;4891378;29;20546;-50
2022/04/22 09:14:19;;;;;;;13.77;10.88;;;;;;;12.56;74.76;100634.47;4896350;29;20053;-52
2022/04/22 09:16:48;;;;;;;17.02;12.75;;;;;;;12.55;75.28;100622.75;4889049;29;20043;-46
2022/04/22 09:19:18;;;;;;;15.20;11.98;;;;;;;12.60;74.69;100618.31;4884091;29;20453;-47
2022/04/22 09:22:01;;;;;;;14.18;10.38;;;;;;;12.64;75.03;100617.44;4891349;29;20048;-51
2022/04/22 09:24:30;;;;;;;14.48;11.13;;;;;;;12.70;73.99;100618.22;4880974;29;20556;-45
2022/04/22 09:27:08;;;;;;;17.77;11.02;;;;;;;12.78;73.54;100610.22;4881022;29;20137;-47
2022/04/22 09:30:09;;;;;;;13.52;10.32;;;;;;;12.87;73.04;100623.25;4917226;29;20089;-45
2022/04/22 09:32:40;;;;;;;14.82;10.10;;;;;;;12.92;73.07;100610.38;4899512;29;20100;-47
2022/04/22 09:35:20;;;;;;;15.32;10.32;;;;;;;13.05;71.91;100614.31;4898576;29;20507;-45
2022/04/22 09:43:34;;;;;;;14.93;9.63;;;;;;;13.27;69.32;100602.91;4890302;29;20461;-49
2022/04/22 09:46:06;;;;;;;11.80;9.05;;;;;;;13.26;69.28;100598.50;4895982;29;20072;-50
2022/04/22 09:48:46;;;;;;;16.05;10.30;;;;;;;13.24;68.85;100597.16;4882284;29;20048;-50
2022/04/22 09:51:24;;;;;;;13.35;9.88;;;;;;;13.34;68.08;100588.88;4926324;29;20456;-51
2022/04/22 09:54:11;;;;;;;14.18;9.82;;;;;;;13.46;67.11;100591.19;4885160;29;20409;-49
2022/04/22 09:56:41;;;;;;;11.43;7.82;;;;;;;13.53;65.39;100580.69;4890845;29;20036;-50
2022/04/22 09:59:30;;;;;;;12.98;7.20;;;;;;;13.66;66.30;100570.94;4882196;29;20054;-51
2022/04/22 10:02:00;;;;;;;18.65;10.02;;;;;;;13.68;65.49;100582.41;4897586;29;20052;-48
2022/04/22 10:04:36;;;;;;;15.77;9.65;;;;;;;13.63;65.52;100569.59;4896723;29;20427;-49
2022/04/22 10:07:05;;;;;;;24.00;18.75;;;;;;;13.66;65.14;100581.88;4889943;29;20546;-46
2022/04/22 10:09:33;;;;;;;17.05;10.23;;;;;;;13.69;63.28;100568.44;4886811;29;20047;-49
2022/04/22 10:12:01;;;;;;;15.15;11.77;;;;;;;13.72;63.21;100575.25;4921500;29;20485;-46
2022/04/22 10:14:38;;;;;;;18.70;14.50;;;;;;;13.79;63.56;100562.00;4922597;29;20436;-48
2022/04/22 10:17:06;;;;;;;15.43;11.18;;;;;;;13.74;63.99;100564.81;4912918;29;20507;-50
2022/04/22 10:19:35;;;;;;;17.52;10.98;;;;;;;13.67;65.07;100569.84;4883261;29;20504;-48
2022/04/22 10:22:04;;;;;;;16.15;11.35;;;;;;;13.63;65.37;100564.94;4879877;29;20093;-50
2022/04/22 10:24:32;;;;;;;31.77;22.05;;;;;;;13.59;64.99;100563.91;4889002;29;20049;-49
2022/04/22 10:27:07;;;;;;;14.45;10.90;;;;;;;13.57;64.67;100566.13;4909504;29;20092;-45
2022/04/22 10:29:36;;;;;;;18.88;12.85;;;;;;;13.57;64.41;100560.66;4879180;29;20133;-49
2022/04/22 10:32:06;;;;;;;25.77;12.90;;;;;;;13.58;65.06;100567.75;4909346;29;20057;-49
2022/04/22 10:34:38;;;;;;;36.17;19.38;;;;;;;13.54;66.09;100568.63;4886724;29;20040;-51
2022/04/22 10:37:17;;;;;;;22.05;12.00;;;;;;;13.49;66.89;100566.78;4898055;29;20041;-48
2022/04/22 10:39:51;;;;;;;57.75;28.33;;;;;;;13.36;66.69;100571.03;4881974;29;20457;-48
2022/04/22 10:42:37;;;;;;;34.53;18.30;;;;;;;13.28;67.64;100565.44;4907600;29;20055;-47
2022/04/22 10:47:56;;;;;;;36.03;20.38;;;;;;;13.26;67.81;100573.06;4891882;29;20069;-46
2022/04/22 10:50:37;;;;;;;35.05;18.75;;;;;;;13.29;67.66;100561.56;4882869;29;20146;-49
2022/04/22 10:53:08;;;;;;;35.05;17.63;;;;;;;13.31;67.73;100564.84;4879747;29;20056;-48
2022/04/22 10:55:42;;;;;;;25.75;15.80;;;;;;;13.32;68.23;100563.72;4897180;29;20044;-44
2022/04/22 10:58:30;;;;;;;35.42;17.15;;;;;;;13.33;68.07;100562.63;4895885;29;20518;-44
2022/04/22 11:00:57;;;;;;;21.25;14.43;;;;;;;13.32;68.32;100552.78;4895599;29;20048;-44
2022/04/22 11:03:29;;;;;;;17.20;12.30;;;;;;;13.33;68.52;100559.88;4896763;29;20054;-45
2022/04/22 11:05:58;;;;;;;25.52;13.85;;;;;;;13.36;68.46;100567.50;4897982;29;20052;-48
2022/04/22 11:08:39;;;;;;;25.50;16.10;;;;;;;13.38;68.17;100557.88;4922117;29;20055;-48
2022/04/22 11:11:11;;;;;;;22.15;13.15;;;;;;;13.39;68.15;100559.50;4893138;29;20045;-44
2022/04/22 11:13:38;;;;;;;39.33;21.20;;;;;;;13.43;68.37;100546.88;4896876;29;20508;-47
2022/04/22 11:16:07;;;;;;;16.02;10.70;;;;;;;13.48;68.30;100550.66;4884138;29;20079;-46
2022/04/22 11:18:39;;;;;;;39.45;20.13;;;;;;;13.49;67.91;100547.59;4885888;29;20420;-47
2022/04/22 11:21:19;;;;;;;17.17;11.80;;;;;;;13.50;67.98;100552.00;4920855;29;20059;-47
2022/04/22 11:23:52;;;;;;;59.10;26.73;;;;;;;13.46;67.84;100547.41;4544504;29;10000414;-47
2022/04/22 11:26:20;;;;;;;18.67;11.50;;;;;;;13.43;68.09;100552.34;4893125;29;20492;-49
2022/04/22 11:28:47;;;;;;;31.38;16.25;;;;;;;13.47;68.23;100543.53;4893835;29;20444;-48
2022/04/22 11:31:15;;;;;;;19.02;10.55;;;;;;;13.49;68.58;100547.59;4907476;29;20049;-48
2022/04/22 11:33:54;;;;;;;27.52;13.80;;;;;;;13.50;67.53;100546.53;4878694;29;20488;-49
2022/04/22 11:36:24;;;;;;;14.90;10.40;;;;;;;13.54;67.00;100539.34;4924161;29;20112;-48
2022/04/22 11:38:54;;;;;;;14.90;10.02;;;;;;;13.56;67.01;100550.00;4892498;29;20041;-48
2022/04/22 11:41:22;;;;;;;20.08;11.52;;;;;;;13.57;66.57;100540.69;4880796;29;20160;-47
2022/04/22 11:43:51;;;;;;;31.33;16.08;;;;;;;13.60;66.17;100540.91;4880744;29;20477;-50
2022/04/22 11:46:19;;;;;;;16.00;8.90;;;;;;;13.63;65.84;100547.69;4893526;29;20045;-51
2022/04/22 11:48:50;;;;;;;20.35;10.60;;;;;;;13.64;65.83;100536.47;4893804;29;20064;-50
2022/04/22 11:51:20;;;;;;;36.65;18.98;;;;;;;13.70;65.09;100547.34;4906164;29;20125;-49
2022/04/22 11:53:50;;;;;;;15.82;9.50;;;;;;;13.73;63.92;100535.78;4881259;29;20056;-48
2022/04/22 11:56:19;;;;;;;24.60;13.25;;;;;;;13.77;63.56;100528.63;4889234;29;20059;-50
2022/04/22 11:58:52;;;;;;;20.33;10.57;;;;;;;13.81;63.38;100529.66;4895895;29;20040;-50
2022/04/22 12:07:02;;;;;;;24.00;13.20;;;;;;;13.93;62.70;100512.78;4890330;29;20044;-53
2022/04/22 12:09:30;;;;;;;25.02;12.55;;;;;;;13.93;61.84;100508.09;4912143;29;20537;-47
2022/04/22 12:11:59;;;;;;;17.10;10.52;;;;;;;13.96;61.63;100506.69;4890684;29;20048;-49
2022/04/22 12:14:28;;;;;;;18.45;10.18;;;;;;;13.94;61.40;100498.75;4878909;29;20051;-50
2022/04/22 12:17:00;;;;;;;19.05;11.45;;;;;;;13.92;62.31;100501.00;4885832;29;20083;-50
2022/04/22 12:19:28;;;;;;;13.20;8.75;;;;;;;13.90;62.64;100503.19;4886073;29;20087;-51
2022/04/22 12:21:56;;;;;;;18.60;8.27;;;;;;;13.88;62.82;100505.44;4879815;29;20058;-49
2022/04/22 12:24:23;;;;;;;15.07;8.57;;;;;;;13.85;63.17;100509.59;4881571;29;20049;-50
2022/04/22 12:26:51;;;;;;;18.70;10.55;;;;;;;13.87;63.21;100511.22;4883558;29;20533;-50
2022/04/22 12:29:22;;;;;;;24.50;11.35;;;;;;;13.87;63.22;100503.81;4896250;29;20056;-46